Time;durP1;ratioP1;P1;durP2;ratioP2;P2;SDS_P1;SDS_P2;PMS_P1;PMS_P2;Temp;Humidity;BMP_temperature;BMP_pressure;BME280_temperature;BME280_humidity;BME280_pressure;Samples;Min_cycle;Max_cycle;Signal;HPM_P1;HPM_P2
2021/11/08 00:01:48;;;;;;;;;;;20.40;44.10;;;;;;474723;243;1623;-48
2021/11/08 00:03:52;;;;;;;;;;;20.30;44.20;;;;;;474391;251;1248;-47
2021/11/08 00:05:51;;;;;;;;;;;20.30;44.20;;;;;;474118;251;2395;-47
2021/11/08 00:07:56;;;;;;;;;;;20.30;44.20;;;;;;474728;251;1263;-47
2021/11/08 00:09:53;;;;;;;;;;;20.30;44.20;;;;;;474570;251;2480;-47
2021/11/08 00:11:55;;;;;;;;;;;20.30;44.10;;;;;;474224;251;1342;-47
2021/11/08 00:13:57;;;;;;;;;;;20.30;44.10;;;;;;474325;251;2297;-47
2021/11/08 00:16:07;;;;;;;;;;;20.30;44.20;;;;;;474689;251;1435;-47
2021/11/08 00:18:05;;;;;;;;;;;20.40;44.20;;;;;;473869;251;2184;-47
2021/11/08 00:20:07;;;;;;;;;;;20.40;44.10;;;;;;474184;251;1421;-47
2021/11/08 00:22:06;;;;;;;;;;;20.40;44.10;;;;;;474169;251;2267;-47
2021/11/08 00:24:10;;;;;;;;;;;20.40;44.10;;;;;;474723;251;1005;-47
2021/11/08 00:26:09;;;;;;;;;;;20.40;44.10;;;;;;474366;243;2229;-47
2021/11/08 00:28:10;;;;;;;;;;;20.30;44.00;;;;;;474370;251;1226;-47
2021/11/08 00:30:12;;;;;;;;;;;20.40;44.10;;;;;;474356;251;1150;-47
2021/11/08 00:32:13;;;;;;;;;;;20.30;44.00;;;;;;474291;251;2365;-47
2021/11/08 00:34:14;;;;;;;;;;;20.40;43.90;;;;;;474365;251;1215;-47
2021/11/08 00:36:16;;;;;;;;;;;20.40;44.00;;;;;;474538;251;1414;-47
2021/11/08 00:38:17;;;;;;;;;;;20.40;43.90;;;;;;474736;251;2129;-47
2021/11/08 00:40:18;;;;;;;;;;;20.40;43.90;;;;;;474630;251;955;-47
2021/11/08 00:42:20;;;;;;;;;;;20.40;43.90;;;;;;474606;251;1216;-47
2021/11/08 00:44:22;;;;;;;;;;;20.40;43.90;;;;;;474324;251;1207;-47
2021/11/08 00:46:22;;;;;;;;;;;20.50;43.90;;;;;;474760;251;1168;-47
2021/11/08 00:48:29;;;;;;;;;;;20.40;43.90;;;;;;474254;251;1294;-47
2021/11/08 00:50:25;;;;;;;;;;;20.50;43.90;;;;;;474246;251;2054;-47
2021/11/08 00:52:27;;;;;;;;;;;20.50;43.90;;;;;;474475;251;1305;-47
2021/11/08 00:54:28;;;;;;;;;;;20.40;43.90;;;;;;474335;251;1236;-47
2021/11/08 00:56:29;;;;;;;;;;;20.50;43.90;;;;;;474615;251;2142;-47
2021/11/08 00:58:33;;;;;;;;;;;20.50;43.80;;;;;;474770;246;1384;-47
2021/11/08 01:00:32;;;;;;;;;;;20.50;43.90;;;;;;474284;251;2266;-47
2021/11/08 01:02:33;;;;;;;;;;;20.50;43.90;;;;;;474232;251;2094;-47
2021/11/08 01:04:36;;;;;;;;;;;20.40;43.90;;;;;;474266;251;1183;-47
2021/11/08 01:06:36;;;;;;;;;;;20.50;43.90;;;;;;474414;251;2014;-47
2021/11/08 01:08:37;;;;;;;;;;;20.40;44.00;;;;;;474257;251;1198;-47
2021/11/08 01:10:38;;;;;;;;;;;20.40;43.90;;;;;;474653;251;1187;-48
2021/11/08 01:12:40;;;;;;;;;;;20.40;43.90;;;;;;474658;251;1216;-47
2021/11/08 01:14:41;;;;;;;;;;;20.40;44.00;;;;;;474262;251;1232;-48
2021/11/08 01:16:42;;;;;;;;;;;20.40;44.00;;;;;;474647;251;2201;-47
2021/11/08 01:18:45;;;;;;;;;;;20.30;44.10;;;;;;474388;251;1184;-47
2021/11/08 01:20:47;;;;;;;;;;;20.30;44.10;;;;;;474659;251;1064;-47
2021/11/08 01:22:48;;;;;;;;;;;20.40;44.20;;;;;;474514;251;2146;-48
2021/11/08 01:24:52;;;;;;;;;;;20.30;44.20;;;;;;474708;251;2011;-47
2021/11/08 01:26:53;;;;;;;;;;;20.30;44.20;;;;;;474495;251;2394;-46
2021/11/08 01:28:54;;;;;;;;;;;20.30;44.30;;;;;;474216;251;1192;-47
2021/11/08 01:30:55;;;;;;;;;;;20.30;44.30;;;;;;474217;251;1097;-47
2021/11/08 01:32:59;;;;;;;;;;;20.20;44.40;;;;;;474513;251;1058;-47
2021/11/08 01:34:58;;;;;;;;;;;20.20;44.30;;;;;;474281;251;2498;-47
2021/11/08 01:37:01;;;;;;;;;;;20.30;44.30;;;;;;474617;251;2191;-47
2021/11/08 01:39:11;;;;;;;;;;;20.30;44.30;;;;;;474671;251;2448;-47
2021/11/08 01:41:02;;;;;;;;;;;20.30;44.30;;;;;;473690;251;1977;-47
2021/11/08 01:43:04;;;;;;;;;;;20.30;44.30;;;;;;474238;251;995;-47
2021/11/08 01:45:05;;;;;;;;;;;20.20;44.40;;;;;;474603;251;1083;-47
2021/11/08 01:47:06;;;;;;;;;;;20.30;44.40;;;;;;474616;251;1039;-48
2021/11/08 01:49:07;;;;;;;;;;;20.40;44.10;;;;;;474225;251;1327;-47
2021/11/08 01:51:09;;;;;;;;;;;20.60;43.80;;;;;;474495;251;1374;-47
2021/11/08 01:53:11;;;;;;;;;;;20.80;43.40;;;;;;474334;251;1047;-48
2021/11/08 01:55:11;;;;;;;;;;;20.90;43.10;;;;;;474294;251;2172;-47
2021/11/08 01:57:13;;;;;;;;;;;21.00;42.90;;;;;;474727;251;2129;-47
2021/11/08 01:59:14;;;;;;;;;;;21.10;42.70;;;;;;474667;251;1189;-47
2021/11/08 02:01:15;;;;;;;;;;;21.10;42.50;;;;;;474638;251;1009;-48
2021/11/08 02:03:17;;;;;;;;;;;21.20;42.50;;;;;;474284;251;1070;-47
2021/11/08 02:05:18;;;;;;;;;;;21.20;42.30;;;;;;474371;251;1138;-47
2021/11/08 02:07:19;;;;;;;;;;;21.30;42.30;;;;;;474616;251;1055;-47
2021/11/08 02:09:21;;;;;;;;;;;21.30;42.20;;;;;;474295;251;1064;-48
2021/11/08 02:11:22;;;;;;;;;;;21.30;42.10;;;;;;474688;251;1246;-47
2021/11/08 02:13:23;;;;;;;;;;;21.40;42.10;;;;;;474733;251;1116;-48
2021/11/08 02:15:25;;;;;;;;;;;21.40;42.10;;;;;;474720;251;1036;-48
2021/11/08 02:17:26;;;;;;;;;;;21.40;42.00;;;;;;474240;251;2146;-46
2021/11/08 02:19:28;;;;;;;;;;;21.40;41.90;;;;;;474284;251;1247;-48
2021/11/08 02:21:29;;;;;;;;;;;21.40;41.90;;;;;;474510;251;1558;-47
2021/11/08 02:23:30;;;;;;;;;;;21.50;41.90;;;;;;474208;251;1072;-47
2021/11/08 02:25:33;;;;;;;;;;;21.50;41.80;;;;;;474260;251;1126;-47
2021/11/08 02:27:33;;;;;;;;;;;21.50;41.80;;;;;;474518;251;2610;-48
2021/11/08 02:29:34;;;;;;;;;;;21.60;41.80;;;;;;474679;251;1971;-48
2021/11/08 02:31:36;;;;;;;;;;;21.60;41.80;;;;;;474262;251;1103;-48
2021/11/08 02:33:36;;;;;;;;;;;21.60;41.70;;;;;;474631;251;1929;-48
2021/11/08 02:35:38;;;;;;;;;;;21.60;41.70;;;;;;474338;251;1210;-47
2021/11/08 02:37:39;;;;;;;;;;;21.60;41.70;;;;;;474594;251;2185;-48
2021/11/08 02:39:43;;;;;;;;;;;21.60;41.60;;;;;;474742;251;975;-48
2021/11/08 02:41:42;;;;;;;;;;;21.60;41.60;;;;;;474076;251;2628;-47
2021/11/08 02:43:43;;;;;;;;;;;21.70;41.60;;;;;;474734;251;1023;-47
2021/11/08 02:45:45;;;;;;;;;;;21.70;41.50;;;;;;474693;251;1605;-48
2021/11/08 02:47:46;;;;;;;;;;;21.70;41.50;;;;;;474499;251;2528;-48
2021/11/08 02:49:49;;;;;;;;;;;21.70;41.50;;;;;;474277;251;1336;-48
2021/11/08 02:51:58;;;;;;;;;;;21.70;41.50;;;;;;474168;251;2314;-47
2021/11/08 02:53:51;;;;;;;;;;;21.70;41.40;;;;;;473715;251;2058;-48
2021/11/08 02:55:52;;;;;;;;;;;21.80;41.50;;;;;;474246;251;2397;-48
2021/11/08 02:57:52;;;;;;;;;;;21.80;41.40;;;;;;474390;251;2288;-48
2021/11/08 02:59:53;;;;;;;;;;;21.80;41.40;;;;;;474581;251;1110;-48
2021/11/08 03:01:55;;;;;;;;;;;21.80;41.40;;;;;;474250;251;1112;-47
2021/11/08 03:03:57;;;;;;;;;;;21.80;41.40;;;;;;474656;251;1247;-48
2021/11/08 03:06:03;;;;;;;;;;;21.80;41.40;;;;;;474360;251;2043;-48
2021/11/08 03:07:59;;;;;;;;;;;21.80;41.30;;;;;;474345;251;1557;-47
2021/11/08 03:10:03;;;;;;;;;;;21.90;41.40;;;;;;474724;251;1070;-48
2021/11/08 03:12:06;;;;;;;;;;;21.90;41.30;;;;;;474105;251;2362;-47
2021/11/08 03:14:05;;;;;;;;;;;21.90;41.30;;;;;;474457;251;1569;-48
2021/11/08 03:16:09;;;;;;;;;;;21.90;41.30;;;;;;474183;251;1633;-48
2021/11/08 03:18:10;;;;;;;;;;;21.90;41.30;;;;;;474025;251;2126;-48
2021/11/08 03:20:10;;;;;;;;;;;21.90;41.30;;;;;;474323;251;2170;-48
2021/11/08 03:22:12;;;;;;;;;;;21.90;41.30;;;;;;474173;251;2286;-47
2021/11/08 03:24:14;;;;;;;;;;;21.90;41.30;;;;;;474259;251;1972;-48
2021/11/08 03:26:27;;;;;;;;;;;21.90;41.20;;;;;;474611;251;2341;-47
2021/11/08 03:28:19;;;;;;;;;;;21.90;41.20;;;;;;474018;251;1792;-47
2021/11/08 03:30:19;;;;;;;;;;;22.00;41.30;;;;;;474169;251;2871;-47
2021/11/08 03:32:20;;;;;;;;;;;22.00;41.30;;;;;;474305;251;1558;-48
2021/11/08 03:34:21;;;;;;;;;;;21.90;41.20;;;;;;474267;251;996;-48
2021/11/08 03:36:23;;;;;;;;;;;22.00;41.30;;;;;;474191;251;1302;-47
2021/11/08 03:38:24;;;;;;;;;;;22.00;41.30;;;;;;474459;251;2122;-47
2021/11/08 03:40:25;;;;;;;;;;;22.00;41.20;;;;;;474723;251;1065;-47
2021/11/08 03:42:28;;;;;;;;;;;22.00;41.20;;;;;;474710;251;1105;-47
2021/11/08 03:44:29;;;;;;;;;;;22.00;41.20;;;;;;474665;251;2480;-47
2021/11/08 03:46:30;;;;;;;;;;;22.00;41.20;;;;;;474426;251;1353;-48
2021/11/08 03:48:31;;;;;;;;;;;22.00;41.20;;;;;;474231;251;1186;-48
2021/11/08 03:50:32;;;;;;;;;;;22.00;41.20;;;;;;474551;251;1228;-47
2021/11/08 03:52:34;;;;;;;;;;;22.00;41.20;;;;;;474234;251;1286;-48
2021/11/08 03:54:35;;;;;;;;;;;22.10;41.20;;;;;;474595;251;1892;-48
2021/11/08 03:56:36;;;;;;;;;;;22.00;41.10;;;;;;474229;243;1366;-48
2021/11/08 03:58:37;;;;;;;;;;;22.00;41.10;;;;;;474674;251;2219;-47
2021/11/08 04:00:40;;;;;;;;;;;22.00;41.10;;;;;;474596;251;1144;-47
2021/11/08 04:02:42;;;;;;;;;;;22.00;41.10;;;;;;474293;251;1235;-48
2021/11/08 04:04:43;;;;;;;;;;;22.10;41.10;;;;;;474406;251;1008;-48
2021/11/08 04:06:45;;;;;;;;;;;22.10;41.10;;;;;;474372;251;1324;-47
2021/11/08 04:08:46;;;;;;;;;;;22.10;41.10;;;;;;474268;251;1455;-48
2021/11/08 04:10:51;;;;;;;;;;;22.10;41.10;;;;;;474272;251;1126;-47
2021/11/08 04:12:49;;;;;;;;;;;22.10;41.10;;;;;;474406;251;2514;-48
2021/11/08 04:14:51;;;;;;;;;;;22.10;41.10;;;;;;474226;251;2179;-48
2021/11/08 04:16:51;;;;;;;;;;;22.10;41.10;;;;;;474437;251;1593;-47
2021/11/08 04:18:55;;;;;;;;;;;22.10;41.00;;;;;;474669;251;2189;-48
2021/11/08 04:20:54;;;;;;;;;;;22.10;41.10;;;;;;474467;251;2025;-48
2021/11/08 04:22:56;;;;;;;;;;;22.10;41.10;;;;;;474367;251;1338;-48
2021/11/08 04:24:57;;;;;;;;;;;22.10;41.00;;;;;;474759;251;1197;-47
2021/11/08 04:26:58;;;;;;;;;;;22.10;41.10;;;;;;474692;251;1728;-48
2021/11/08 04:29:02;;;;;;;;;;;22.10;41.00;;;;;;474678;251;1189;-48
2021/11/08 04:31:02;;;;;;;;;;;22.20;41.10;;;;;;474607;251;2272;-48
2021/11/08 04:33:14;;;;;;;;;;;22.20;41.10;;;;;;474642;251;1261;-47
2021/11/08 04:35:11;;;;;;;;;;;22.20;41.00;;;;;;474060;251;2264;-47
2021/11/08 04:39:32;;;;;;;;;;;22.20;41.00;;;;;;461589;254;2183;-47
2021/11/08 04:41:42;;;;;;;;;;;22.20;41.00;;;;;;472911;245;2540;-48
2021/11/08 04:43:49;;;;;;;;;;;22.20;41.00;;;;;;487299;243;1976;-48
2021/11/08 04:46:17;;;;;;;;;;;22.20;41.00;;;;;;487741;243;2306;-48
2021/11/08 04:50:31;;;;;;;;;;;22.20;41.00;;;;;;488145;243;1214;-48
2021/11/08 04:52:40;;;;;;;;;;;22.20;41.00;;;;;;487559;243;1649;-48
2021/11/08 04:54:43;;;;;;;;;;;22.20;41.00;;;;;;487910;243;2364;-47
2021/11/08 04:57:11;;;;;;;;;;;22.20;41.00;;;;;;487630;240;1830;-48
2021/11/08 05:23:05;;;;;;;;;;;22.30;40.90;;;;;;460438;254;1213;-47
2021/11/08 05:25:12;;;;;;;;;;;22.30;40.90;;;;;;473077;251;1839;-48
2021/11/08 05:31:47;;;;;;;;;;;22.30;40.90;;;;;;472932;252;1496;-48
2021/11/08 05:33:48;;;;;;;;;;;22.30;40.90;;;;;;487763;244;1236;-48
2021/11/08 05:35:51;;;;;;;;;;;22.30;40.90;;;;;;487655;244;1145;-48
2021/11/08 05:37:51;;;;;;;;;;;22.30;40.80;;;;;;487438;244;2261;-47
2021/11/08 05:39:54;;;;;;;;;;;22.30;40.80;;;;;;478427;248;2223;-48
2021/11/08 05:41:55;;;;;;;;;;;22.40;40.90;;;;;;474091;251;2413;-48
2021/11/08 05:43:55;;;;;;;;;;;22.30;40.90;;;;;;474006;251;1933;-48
2021/11/08 05:45:56;;;;;;;;;;;22.40;40.90;;;;;;474399;251;1147;-48
2021/11/08 05:47:58;;;;;;;;;;;22.30;40.80;;;;;;474035;251;1307;-47
2021/11/08 05:49:59;;;;;;;;;;;22.30;40.70;;;;;;474139;251;1082;-48
2021/11/08 05:52:00;;;;;;;;;;;22.40;40.80;;;;;;474074;251;1327;-48
2021/11/08 05:54:01;;;;;;;;;;;22.40;40.80;;;;;;474165;251;1108;-47
2021/11/08 05:56:09;;;;;;;;;;;22.40;40.80;;;;;;474023;251;1369;-47
2021/11/08 05:58:28;;;;;;;;;;;22.40;40.80;;;;;;473899;251;2286;-47
2021/11/08 06:49:22;;;;;;;;;;;22.40;40.70;;;;;;487414;243;1125;-48
2021/11/08 06:51:22;;;;;;;;;;;22.40;40.70;;;;;;472832;252;2044;-47
2021/11/08 06:53:23;;;;;;;;;;;22.50;40.70;;;;;;487523;244;2102;-48
2021/11/08 06:55:24;;;;;;;;;;;22.40;40.70;;;;;;487580;244;996;-47
2021/11/08 06:57:31;;;;;;;;;;;22.50;40.70;;;;;;487648;244;1219;-48
2021/11/08 06:59:27;;;;;;;;;;;22.40;40.70;;;;;;478091;249;2202;-48
2021/11/08 07:01:28;;;;;;;;;;;22.50;40.70;;;;;;473921;251;1343;-48
2021/11/08 07:03:29;;;;;;;;;;;22.50;40.70;;;;;;473767;251;1085;-48
2021/11/08 07:05:31;;;;;;;;;;;22.50;40.70;;;;;;473815;251;1350;-48
2021/11/08 07:07:32;;;;;;;;;;;22.50;40.70;;;;;;473723;251;1302;-48
2021/11/08 07:09:33;;;;;;;;;;;22.50;40.60;;;;;;473868;251;1177;-48
2021/11/08 07:11:35;;;;;;;;;;;22.50;40.60;;;;;;473774;251;1299;-48
2021/11/08 07:13:36;;;;;;;;;;;22.50;40.60;;;;;;473814;251;1083;-48
2021/11/08 07:15:37;;;;;;;;;;;22.50;40.60;;;;;;473697;251;1150;-47
2021/11/08 07:17:39;;;;;;;;;;;22.50;40.60;;;;;;473763;251;1213;-48
2021/11/08 07:19:40;;;;;;;;;;;22.50;40.50;;;;;;473752;251;2122;-48
2021/11/08 07:21:41;;;;;;;;;;;22.50;40.50;;;;;;473888;251;1252;-48
2021/11/08 07:23:43;;;;;;;;;;;22.50;40.50;;;;;;473771;251;1220;-47
2021/11/08 07:25:44;;;;;;;;;;;22.50;40.50;;;;;;473531;251;1070;-48
2021/11/08 07:27:45;;;;;;;;;;;22.50;40.40;;;;;;473545;251;1317;-47
2021/11/08 07:29:47;;;;;;;;;;;22.50;40.40;;;;;;473681;251;1147;-48
2021/11/08 07:31:48;;;;;;;;;;;22.50;40.30;;;;;;473550;251;1334;-47
2021/11/08 07:33:49;;;;;;;;;;;22.60;40.40;;;;;;473603;251;1246;-48
2021/11/08 07:35:51;;;;;;;;;;;22.50;40.30;;;;;;473650;251;1102;-48
2021/11/08 07:37:52;;;;;;;;;;;22.50;40.40;;;;;;473605;251;1405;-48
2021/11/08 07:39:53;;;;;;;;;;;22.50;40.40;;;;;;473506;251;2205;-48
2021/11/08 07:41:55;;;;;;;;;;;22.50;40.40;;;;;;473521;246;1363;-48
2021/11/08 07:43:56;;;;;;;;;;;22.50;40.40;;;;;;473661;251;1081;-48
2021/11/08 07:45:57;;;;;;;;;;;22.50;40.30;;;;;;473557;251;1109;-48
2021/11/08 07:47:59;;;;;;;;;;;22.50;40.40;;;;;;473510;251;1197;-48
2021/11/08 07:50:00;;;;;;;;;;;22.50;40.40;;;;;;473643;251;1132;-48
2021/11/08 07:52:01;;;;;;;;;;;22.50;40.30;;;;;;473405;251;1200;-48
2021/11/08 07:54:02;;;;;;;;;;;22.50;40.30;;;;;;473566;251;1315;-48
2021/11/08 07:56:04;;;;;;;;;;;22.50;40.30;;;;;;473502;251;1123;-48
2021/11/08 07:58:05;;;;;;;;;;;22.50;40.30;;;;;;473501;251;1069;-47
2021/11/08 08:00:06;;;;;;;;;;;22.50;40.30;;;;;;473384;251;2197;-48
2021/11/08 08:02:08;;;;;;;;;;;22.50;40.20;;;;;;473429;251;1325;-48
2021/11/08 08:04:09;;;;;;;;;;;22.50;40.20;;;;;;473383;251;1094;-48
2021/11/08 08:06:10;;;;;;;;;;;22.50;40.20;;;;;;473328;251;1288;-48
2021/11/08 08:08:12;;;;;;;;;;;22.50;40.20;;;;;;473316;251;1851;-48
2021/11/08 08:10:13;;;;;;;;;;;22.50;40.20;;;;;;472879;251;1226;-48
2021/11/08 08:12:14;;;;;;;;;;;22.50;40.20;;;;;;472872;251;1357;-48
2021/11/08 08:14:16;;;;;;;;;;;22.50;40.20;;;;;;473344;251;1275;-47
2021/11/08 08:16:18;;;;;;;;;;;22.50;40.10;;;;;;473985;251;1238;-48
2021/11/08 08:18:19;;;;;;;;;;;22.50;40.10;;;;;;474140;251;1000;-48
2021/11/08 08:20:20;;;;;;;;;;;22.60;40.10;;;;;;473776;251;2205;-48
2021/11/08 08:22:24;;;;;;;;;;;22.50;40.10;;;;;;474189;251;1174;-48
2021/11/08 08:24:23;;;;;;;;;;;22.50;40.00;;;;;;473862;251;2108;-48
2021/11/08 08:26:24;;;;;;;;;;;22.50;40.00;;;;;;473570;251;1166;-48
2021/11/08 08:28:25;;;;;;;;;;;22.50;40.00;;;;;;473984;251;1109;-48
2021/11/08 08:30:27;;;;;;;;;;;22.50;40.00;;;;;;473162;251;1225;-48
2021/11/08 08:32:28;;;;;;;;;;;22.50;40.00;;;;;;473011;251;1350;-48
2021/11/08 08:34:30;;;;;;;;;;;22.50;40.00;;;;;;473081;251;1102;-48
2021/11/08 08:36:31;;;;;;;;;;;22.50;39.90;;;;;;473072;251;2439;-48
2021/11/08 08:38:32;;;;;;;;;;;22.50;40.00;;;;;;473010;251;1144;-48
2021/11/08 08:40:33;;;;;;;;;;;22.50;39.80;;;;;;473127;251;2189;-48
2021/11/08 08:42:35;;;;;;;;;;;22.50;40.10;;;;;;473045;251;1081;-48
2021/11/08 08:44:36;;;;;;;;;;;22.50;40.10;;;;;;473432;251;1113;-48
2021/11/08 08:46:37;;;;;;;;;;;22.40;40.20;;;;;;473325;244;1307;-48
2021/11/08 08:48:39;;;;;;;;;;;22.30;40.40;;;;;;473360;251;1094;-47
2021/11/08 08:50:40;;;;;;;;;;;22.10;40.70;;;;;;473260;251;1248;-47
2021/11/08 08:52:41;;;;;;;;;;;22.00;41.00;;;;;;473176;251;1306;-47
2021/11/08 08:54:43;;;;;;;;;;;21.90;41.10;;;;;;473348;251;1237;-48
2021/11/08 08:56:44;;;;;;;;;;;21.80;41.30;;;;;;473269;251;1317;-48
2021/11/08 08:58:45;;;;;;;;;;;21.80;41.40;;;;;;473221;251;1306;-47
2021/11/08 09:00:48;;;;;;;;;;;21.70;41.50;;;;;;473145;251;2192;-47
2021/11/08 09:02:48;;;;;;;;;;;21.70;41.50;;;;;;473708;251;2097;-48
2021/11/08 09:04:49;;;;;;;;;;;21.70;41.60;;;;;;473631;251;1008;-47
2021/11/08 09:06:50;;;;;;;;;;;21.60;41.60;;;;;;474064;246;1176;-47
2021/11/08 09:08:52;;;;;;;;;;;21.60;41.60;;;;;;474167;251;951;-47
2021/11/08 09:10:53;;;;;;;;;;;21.60;41.70;;;;;;473681;251;1159;-47
2021/11/08 09:12:54;;;;;;;;;;;21.60;41.70;;;;;;473348;251;1164;-47
2021/11/08 09:14:56;;;;;;;;;;;21.50;41.70;;;;;;473193;251;1110;-48
2021/11/08 09:16:57;;;;;;;;;;;21.50;41.70;;;;;;473233;251;1201;-48
2021/11/08 09:18:58;;;;;;;;;;;21.50;41.80;;;;;;473226;251;1177;-47
2021/11/08 09:21:00;;;;;;;;;;;21.50;41.80;;;;;;473198;251;2185;-48
2021/11/08 09:23:01;;;;;;;;;;;21.40;41.80;;;;;;473061;251;1279;-47
2021/11/08 09:25:02;;;;;;;;;;;21.40;41.80;;;;;;473057;251;1448;-48
2021/11/08 09:27:04;;;;;;;;;;;21.40;41.80;;;;;;473032;251;1293;-48
2021/11/08 09:29:05;;;;;;;;;;;21.40;41.80;;;;;;473349;251;1076;-47
2021/11/08 09:31:06;;;;;;;;;;;21.40;41.90;;;;;;473148;251;1238;-47
2021/11/08 09:33:08;;;;;;;;;;;21.40;41.90;;;;;;473090;251;1293;-47
2021/11/08 09:35:09;;;;;;;;;;;21.30;41.90;;;;;;473210;251;1066;-47
2021/11/08 09:37:13;;;;;;;;;;;21.30;42.00;;;;;;473266;251;1399;-47
2021/11/08 09:39:19;;;;;;;;;;;21.30;42.00;;;;;;472991;251;2041;-48
2021/11/08 09:41:14;;;;;;;;;;;21.30;42.10;;;;;;472780;251;2382;-47
2021/11/08 09:43:15;;;;;;;;;;;21.20;42.10;;;;;;473231;251;1350;-47
2021/11/08 09:45:16;;;;;;;;;;;21.20;42.10;;;;;;473238;251;1128;-47
2021/11/08 09:47:17;;;;;;;;;;;21.20;42.20;;;;;;473084;251;1298;-47
2021/11/08 09:49:18;;;;;;;;;;;21.10;42.20;;;;;;473341;251;1075;-47
2021/11/08 09:51:20;;;;;;;;;;;21.10;42.30;;;;;;473376;251;1164;-47
2021/11/08 09:53:21;;;;;;;;;;;21.10;42.30;;;;;;473372;251;1222;-47
2021/11/08 09:55:22;;;;;;;;;;;21.10;42.20;;;;;;473118;251;1511;-47
2021/11/08 09:57:24;;;;;;;;;;;21.10;42.30;;;;;;473381;251;1236;-47
2021/11/08 09:59:25;;;;;;;;;;;21.00;42.30;;;;;;473210;251;2176;-47
2021/11/08 10:01:27;;;;;;;;;;;21.10;42.30;;;;;;473312;251;1201;-47
2021/11/08 10:03:29;;;;;;;;;;;21.00;42.30;;;;;;473228;251;1122;-47
2021/11/08 10:05:30;;;;;;;;;;;21.00;42.30;;;;;;473070;251;1258;-47
2021/11/08 10:07:31;;;;;;;;;;;21.10;42.30;;;;;;472999;251;1190;-47
2021/11/08 10:09:32;;;;;;;;;;;21.00;42.30;;;;;;473155;251;1213;-48
2021/11/08 10:11:34;;;;;;;;;;;21.00;42.30;;;;;;473170;251;1251;-47
2021/11/08 10:13:35;;;;;;;;;;;21.00;42.20;;;;;;473245;251;1137;-47
2021/11/08 10:15:36;;;;;;;;;;;20.90;42.30;;;;;;473184;251;1217;-47
2021/11/08 10:17:38;;;;;;;;;;;21.00;42.40;;;;;;473200;251;1290;-47
2021/11/08 10:19:39;;;;;;;;;;;21.00;42.30;;;;;;473308;251;2189;-47
2021/11/08 10:21:41;;;;;;;;;;;21.00;42.20;;;;;;473285;251;1093;-47
2021/11/08 10:23:42;;;;;;;;;;;21.00;42.30;;;;;;473368;251;2019;-48
2021/11/08 10:25:43;;;;;;;;;;;21.00;42.20;;;;;;473224;251;1232;-48
2021/11/08 10:27:45;;;;;;;;;;;21.10;42.10;;;;;;473198;251;1120;-48
2021/11/08 10:29:46;;;;;;;;;;;21.10;42.00;;;;;;473149;251;1421;-47
2021/11/08 10:31:47;;;;;;;;;;;21.10;42.00;;;;;;473199;251;1453;-47
2021/11/08 10:33:49;;;;;;;;;;;21.00;42.00;;;;;;473196;251;1304;-47
2021/11/08 10:35:50;;;;;;;;;;;21.00;42.00;;;;;;473236;251;1082;-47
2021/11/08 10:37:51;;;;;;;;;;;21.00;42.00;;;;;;473251;251;1496;-47
2021/11/08 10:39:52;;;;;;;;;;;21.10;42.00;;;;;;473358;251;2189;-48
2021/11/08 10:41:55;;;;;;;;;;;21.00;42.00;;;;;;473269;251;1495;-47
2021/11/08 10:43:55;;;;;;;;;;;21.00;41.90;;;;;;473232;251;2008;-47
2021/11/08 10:45:56;;;;;;;;;;;21.00;41.90;;;;;;473178;251;1101;-47
2021/11/08 10:47:58;;;;;;;;;;;21.00;41.80;;;;;;473176;251;1116;-47
2021/11/08 10:49:59;;;;;;;;;;;21.00;41.90;;;;;;472615;251;1085;-47
2021/11/08 10:52:00;;;;;;;;;;;21.10;41.90;;;;;;473345;246;1362;-47
2021/11/08 10:54:02;;;;;;;;;;;21.00;41.80;;;;;;473333;251;1053;-47
2021/11/08 10:56:09;;;;;;;;;;;21.00;41.80;;;;;;473321;251;1316;-47
2021/11/08 10:58:08;;;;;;;;;;;21.00;41.80;;;;;;473041;251;1942;-48
2021/11/08 11:00:09;;;;;;;;;;;21.00;41.80;;;;;;473287;251;2210;-47
2021/11/08 11:02:12;;;;;;;;;;;21.00;41.90;;;;;;473247;246;1345;-47
2021/11/08 11:04:12;;;;;;;;;;;21.00;41.90;;;;;;474143;251;1527;-47
2021/11/08 11:06:14;;;;;;;;;;;21.00;42.00;;;;;;474120;251;1073;-47
2021/11/08 11:08:15;;;;;;;;;;;21.00;41.90;;;;;;474137;251;1114;-48
2021/11/08 11:10:17;;;;;;;;;;;20.90;41.90;;;;;;473345;251;1130;-47
2021/11/08 11:12:19;;;;;;;;;;;21.00;41.90;;;;;;473457;251;1280;-47
2021/11/08 11:14:20;;;;;;;;;;;20.90;41.90;;;;;;473519;251;1256;-47
2021/11/08 11:16:21;;;;;;;;;;;20.90;41.90;;;;;;473497;251;1221;-47
2021/11/08 11:18:23;;;;;;;;;;;21.00;41.90;;;;;;473442;251;1396;-47
2021/11/08 11:20:24;;;;;;;;;;;20.90;41.80;;;;;;473199;251;2213;-47
2021/11/08 11:22:26;;;;;;;;;;;20.90;41.90;;;;;;473192;251;1305;-47
2021/11/08 11:24:27;;;;;;;;;;;20.90;42.00;;;;;;473405;251;1205;-46
2021/11/08 11:26:30;;;;;;;;;;;20.80;42.00;;;;;;473470;251;1206;-47
2021/11/08 11:28:33;;;;;;;;;;;20.90;42.00;;;;;;474130;251;2280;-47
2021/11/08 11:30:32;;;;;;;;;;;20.80;42.00;;;;;;473060;251;2150;-47
2021/11/08 11:32:33;;;;;;;;;;;20.90;42.00;;;;;;473247;251;1186;-48
2021/11/08 11:34:35;;;;;;;;;;;20.80;42.00;;;;;;473283;251;1116;-47
2021/11/08 11:36:36;;;;;;;;;;;20.90;42.00;;;;;;473199;251;1279;-47
2021/11/08 11:38:40;;;;;;;;;;;20.80;41.90;;;;;;472537;251;1411;-47
2021/11/08 11:40:39;;;;;;;;;;;20.80;41.90;;;;;;473215;251;2431;-47
2021/11/08 11:42:40;;;;;;;;;;;20.90;41.90;;;;;;473372;251;1593;-47
2021/11/08 11:44:41;;;;;;;;;;;20.80;42.00;;;;;;473325;251;1236;-47
2021/11/08 11:46:43;;;;;;;;;;;20.80;42.00;;;;;;473141;251;1187;-47
2021/11/08 11:48:44;;;;;;;;;;;20.70;42.00;;;;;;473196;251;1352;-47
2021/11/08 11:50:45;;;;;;;;;;;20.80;42.00;;;;;;473183;251;1384;-47
2021/11/08 11:52:46;;;;;;;;;;;20.90;41.80;;;;;;473425;251;1269;-48
2021/11/08 11:54:48;;;;;;;;;;;20.90;41.90;;;;;;473645;251;1087;-48
2021/11/08 11:56:49;;;;;;;;;;;20.80;41.80;;;;;;473348;251;1297;-47
2021/11/08 11:58:50;;;;;;;;;;;20.80;41.80;;;;;;473757;251;1148;-46
2021/11/08 12:00:52;;;;;;;;;;;20.80;41.90;;;;;;473963;251;2189;-48
2021/11/08 12:02:53;;;;;;;;;;;20.80;41.80;;;;;;473977;251;1239;-47
2021/11/08 12:04:55;;;;;;;;;;;20.80;41.80;;;;;;473348;251;1225;-47
2021/11/08 12:06:56;;;;;;;;;;;20.90;41.70;;;;;;473527;251;1237;-47
2021/11/08 12:08:57;;;;;;;;;;;20.80;41.60;;;;;;474194;251;878;-47
2021/11/08 12:10:59;;;;;;;;;;;20.90;41.60;;;;;;474195;247;1113;-47
2021/11/08 12:13:00;;;;;;;;;;;20.90;41.60;;;;;;473684;251;1434;-47
2021/11/08 12:15:07;;;;;;;;;;;20.90;41.60;;;;;;473467;251;1192;-47
2021/11/08 12:17:03;;;;;;;;;;;20.90;41.50;;;;;;473237;251;2078;-47
2021/11/08 12:19:05;;;;;;;;;;;20.90;41.60;;;;;;473267;251;1098;-47
2021/11/08 12:21:11;;;;;;;;;;;20.90;41.50;;;;;;473501;251;2201;-47
2021/11/08 12:23:07;;;;;;;;;;;21.00;41.40;;;;;;473263;251;2157;-47
2021/11/08 12:25:09;;;;;;;;;;;20.90;41.50;;;;;;473864;251;1034;-47
2021/11/08 12:27:10;;;;;;;;;;;20.90;41.40;;;;;;473595;251;1135;-47
2021/11/08 12:29:12;;;;;;;;;;;21.00;41.50;;;;;;473473;251;1089;-47
2021/11/08 12:31:12;;;;;;;;;;;20.90;41.50;;;;;;473221;251;2051;-47
2021/11/08 12:33:14;;;;;;;;;;;21.00;41.50;;;;;;473459;251;1055;-48
2021/11/08 12:35:15;;;;;;;;;;;21.00;41.40;;;;;;473040;251;2246;-47
2021/11/08 12:37:16;;;;;;;;;;;21.00;41.40;;;;;;473174;251;1320;-47
2021/11/08 12:39:18;;;;;;;;;;;20.90;41.40;;;;;;473565;251;753;-48
2021/11/08 12:41:20;;;;;;;;;;;20.90;41.40;;;;;;473112;251;2208;-47
2021/11/08 12:43:21;;;;;;;;;;;20.90;41.40;;;;;;473532;251;2145;-47
2021/11/08 12:45:23;;;;;;;;;;;21.00;41.40;;;;;;474059;251;1169;-48
2021/11/08 12:47:25;;;;;;;;;;;20.90;41.30;;;;;;474162;251;1054;-47
2021/11/08 12:49:26;;;;;;;;;;;20.90;41.40;;;;;;473697;251;880;-47
2021/11/08 12:51:27;;;;;;;;;;;20.90;41.40;;;;;;473256;251;1315;-47
2021/11/08 12:53:29;;;;;;;;;;;20.90;41.50;;;;;;473663;251;1044;-47
2021/11/08 12:55:30;;;;;;;;;;;20.80;41.50;;;;;;473358;251;1210;-47
2021/11/08 12:57:31;;;;;;;;;;;20.90;41.50;;;;;;473620;251;1218;-47
2021/11/08 12:59:35;;;;;;;;;;;20.90;41.60;;;;;;473378;251;1131;-47
2021/11/08 13:01:34;;;;;;;;;;;20.80;41.50;;;;;;473207;251;2450;-47
2021/11/08 13:03:38;;;;;;;;;;;20.90;41.50;;;;;;473562;251;1061;-48
2021/11/08 13:05:37;;;;;;;;;;;20.80;41.60;;;;;;472954;251;2204;-47
2021/11/08 13:07:39;;;;;;;;;;;20.80;41.60;;;;;;473434;251;1174;-47
2021/11/08 13:09:40;;;;;;;;;;;20.80;41.50;;;;;;474044;251;1710;-47
2021/11/08 13:11:41;;;;;;;;;;;20.70;41.60;;;;;;473543;246;1192;-47
2021/11/08 13:13:43;;;;;;;;;;;20.80;41.60;;;;;;473563;251;1117;-47
2021/11/08 13:15:44;;;;;;;;;;;20.80;41.50;;;;;;473176;251;1328;-47
2021/11/08 13:17:45;;;;;;;;;;;20.70;41.50;;;;;;473044;251;1271;-47
2021/11/08 13:19:47;;;;;;;;;;;20.70;41.50;;;;;;473273;251;1283;-48
2021/11/08 13:21:48;;;;;;;;;;;20.70;41.50;;;;;;472950;247;2186;-47